Time;durP1;ratioP1;P1;durP2;ratioP2;P2;SDS_P1;SDS_P2;PMS_P1;PMS_P2;Temp;Humidity;BMP_temperature;BMP_pressure;BME280_temperature;BME280_humidity;BME280_pressure;Samples;Min_cycle;Max_cycle;Signal;HPM_P1;HPM_P2
2021/09/24 00:00:48;;;;;;;9.38;6.15;;;17.20;99.90;;;;;;5070805;28;20210;-86
2021/09/24 00:03:16;;;;;;;6.43;5.63;;;17.20;99.90;;;;;;5074160;28;20240;-89
2021/09/24 00:05:43;;;;;;;8.38;6.32;;;17.20;99.90;;;;;;5074285;28;20678;-79
2021/09/24 00:08:10;;;;;;;7.97;7.00;;;17.10;99.90;;;;;;5074201;28;20233;-87
2021/09/24 00:10:37;;;;;;;7.63;6.05;;;17.10;99.90;;;;;;5074185;28;20207;-79
2021/09/24 00:13:04;;;;;;;7.50;5.78;;;17.10;99.90;;;;;;5073816;28;20576;-84
2021/09/24 00:15:31;;;;;;;6.82;6.22;;;17.20;99.90;;;;;;5074104;28;20259;-78
2021/09/24 00:17:59;;;;;;;10.00;6.10;;;17.10;99.90;;;;;;5074344;28;20210;-85
2021/09/24 00:20:28;;;;;;;6.03;5.40;;;17.20;99.90;;;;;;5073460;28;20205;-80
2021/09/24 00:22:55;;;;;;;6.82;6.18;;;17.20;99.90;;;;;;5073405;28;20629;-80
2021/09/24 00:25:22;;;;;;;5.68;5.10;;;17.20;99.90;;;;;;5072799;28;20210;-79
2021/09/24 00:27:49;;;;;;;6.18;5.57;;;17.10;99.90;;;;;;5073182;28;20210;-80
2021/09/24 00:30:16;;;;;;;7.57;5.03;;;17.10;99.90;;;;;;5072931;28;20277;-79
2021/09/24 00:32:43;;;;;;;7.72;5.30;;;17.00;99.90;;;;;;5073072;28;20198;-80
2021/09/24 00:35:11;;;;;;;5.90;5.40;;;17.00;99.90;;;;;;5074186;28;20259;-87
2021/09/24 00:37:39;;;;;;;6.95;4.95;;;17.00;99.90;;;;;;5074535;28;20207;-89
2021/09/24 00:40:09;;;;;;;4.68;4.25;;;16.90;99.90;;;;;;5073979;28;20284;-90
2021/09/24 00:42:37;;;;;;;7.97;5.40;;;16.80;99.90;;;;;;5074311;28;20206;-88
2021/09/24 00:45:05;;;;;;;6.10;5.13;;;16.80;99.90;;;;;;5074277;28;20210;-87
2021/09/24 00:47:33;;;;;;;5.95;5.30;;;16.80;99.90;;;;;;5073029;28;20582;-82
2021/09/24 00:50:00;;;;;;;5.75;5.25;;;16.90;99.90;;;;;;5073452;28;20263;-84
2021/09/24 00:52:28;;;;;;;5.57;5.07;;;16.80;99.90;;;;;;5072891;28;20289;-84
2021/09/24 00:54:57;;;;;;;8.90;5.22;;;16.80;99.90;;;;;;5072745;28;20294;-83
2021/09/24 00:57:24;;;;;;;5.78;5.28;;;16.60;99.90;;;;;;5072856;28;20210;-78
2021/09/24 00:59:51;;;;;;;5.03;4.53;;;16.60;99.90;;;;;;5072339;28;20747;-79
2021/09/24 01:02:19;;;;;;;5.60;5.10;;;16.60;99.90;;;;;;5072349;28;20641;-78
2021/09/24 01:04:47;;;;;;;5.90;5.32;;;16.60;99.90;;;;;;5072748;28;20268;-83
2021/09/24 01:07:14;;;;;;;6.68;5.95;;;16.70;99.90;;;;;;5072293;28;20202;-80
2021/09/24 01:09:41;;;;;;;5.97;4.65;;;16.70;99.90;;;;;;5072455;28;20677;-83
2021/09/24 01:12:10;;;;;;;6.57;5.25;;;16.70;99.90;;;;;;5071826;28;20247;-82
2021/09/24 01:14:37;;;;;;;6.15;5.35;;;16.60;99.90;;;;;;5072967;28;20362;-81
2021/09/24 01:17:05;;;;;;;6.45;5.85;;;16.60;99.90;;;;;;5071934;28;20234;-84
2021/09/24 01:19:32;;;;;;;6.88;5.40;;;16.50;99.90;;;;;;5072934;28;20287;-78
2021/09/24 01:22:01;;;;;;;6.95;6.20;;;16.60;99.90;;;;;;5072768;28;20260;-78
2021/09/24 01:24:28;;;;;;;5.45;4.93;;;16.50;99.90;;;;;;5072973;28;20198;-84
2021/09/24 01:26:56;;;;;;;8.57;6.07;;;16.60;99.90;;;;;;5072752;28;20256;-81
2021/09/24 01:29:25;;;;;;;9.20;8.27;;;16.50;99.90;;;;;;5071936;28;20248;-83
2021/09/24 01:31:52;;;;;;;7.53;6.60;;;16.50;99.90;;;;;;5072186;28;20267;-80
2021/09/24 01:34:19;;;;;;;7.72;6.93;;;16.50;99.90;;;;;;5071668;28;20276;-82
2021/09/24 01:36:46;;;;;;;7.47;6.75;;;16.50;99.90;;;;;;5072081;28;20739;-83
2021/09/24 01:39:14;;;;;;;9.77;7.13;;;16.50;99.90;;;;;;5071724;28;20256;-83
2021/09/24 01:41:43;;;;;;;9.20;6.45;;;16.40;99.90;;;;;;5071896;28;20670;-81
2021/09/24 01:44:11;;;;;;;9.32;7.75;;;16.40;99.90;;;;;;5070036;28;20275;-87
2021/09/24 01:46:39;;;;;;;8.05;7.03;;;16.40;99.90;;;;;;5072518;28;20213;-87
2021/09/24 01:49:07;;;;;;;8.23;6.40;;;16.40;99.90;;;;;;5071528;28;20206;-83
2021/09/24 01:51:34;;;;;;;8.73;7.47;;;16.40;99.90;;;;;;5071852;28;20206;-81
2021/09/24 01:54:01;;;;;;;8.88;6.93;;;16.40;99.90;;;;;;5071075;28;20242;-75
2021/09/24 01:56:30;;;;;;;7.35;5.47;;;16.40;99.90;;;;;;5072244;28;20202;-80
2021/09/24 01:58:57;;;;;;;10.07;7.22;;;16.40;99.90;;;;;;5072000;28;20210;-84
2021/09/24 02:01:27;;;;;;;8.85;7.50;;;16.30;99.90;;;;;;5070959;28;20688;-79
2021/09/24 02:03:54;;;;;;;6.53;5.55;;;16.30;99.90;;;;;;5071774;28;20217;-84
2021/09/24 02:06:22;;;;;;;6.78;6.10;;;16.30;99.90;;;;;;5070983;28;20214;-81
2021/09/24 02:08:49;;;;;;;12.20;6.07;;;16.30;99.90;;;;;;5071261;28;20213;-83
2021/09/24 02:11:16;;;;;;;7.90;6.85;;;16.30;99.90;;;;;;5071012;28;20671;-84
2021/09/24 02:13:44;;;;;;;7.55;6.38;;;16.30;99.90;;;;;;5071353;28;20230;-83
2021/09/24 02:16:13;;;;;;;6.85;5.93;;;16.30;99.90;;;;;;5070378;28;20210;-82
2021/09/24 02:18:40;;;;;;;7.20;5.90;;;16.30;99.90;;;;;;5071489;28;20259;-83
2021/09/24 02:21:08;;;;;;;10.98;6.18;;;16.30;99.90;;;;;;5070218;28;20624;-75
2021/09/24 02:23:36;;;;;;;10.00;7.57;;;16.30;99.90;;;;;;5056984;28;20739;-84
2021/09/24 02:26:03;;;;;;;6.70;5.95;;;16.20;99.90;;;;;;5071430;28;20206;-77
2021/09/24 02:28:31;;;;;;;6.68;5.95;;;16.20;99.90;;;;;;5071381;28;20255;-77
2021/09/24 02:30:59;;;;;;;8.00;6.03;;;16.10;99.90;;;;;;5071619;28;20210;-79
2021/09/24 02:33:27;;;;;;;8.43;6.65;;;16.10;99.90;;;;;;5070927;28;20226;-83
2021/09/24 02:35:53;;;;;;;7.07;6.18;;;16.20;99.90;;;;;;5071526;28;20201;-89
2021/09/24 02:38:20;;;;;;;7.50;6.18;;;16.20;99.90;;;;;;5070797;28;20202;-87
2021/09/24 02:40:47;;;;;;;7.38;6.13;;;16.10;99.90;;;;;;5071256;28;20210;-87
2021/09/24 02:43:14;;;;;;;8.75;6.43;;;16.10;99.90;;;;;;5070634;28;20210;-88
2021/09/24 02:45:41;;;;;;;8.65;6.40;;;16.10;99.90;;;;;;5071379;28;20698;-80
2021/09/24 02:48:10;;;;;;;6.60;5.68;;;16.10;99.90;;;;;;5071331;28;20248;-86
2021/09/24 02:50:37;;;;;;;7.25;5.93;;;16.00;99.90;;;;;;5071126;28;20207;-78
2021/09/24 02:53:04;;;;;;;6.88;5.88;;;16.00;99.90;;;;;;5070963;28;20210;-81
2021/09/24 02:55:31;;;;;;;8.20;6.40;;;16.10;99.90;;;;;;5071098;28;20237;-81
2021/09/24 02:57:58;;;;;;;7.07;6.30;;;16.10;99.90;;;;;;5071319;28;20629;-82
2021/09/24 03:00:26;;;;;;;13.88;6.00;;;16.00;99.90;;;;;;5070478;28;20260;-80
2021/09/24 03:02:53;;;;;;;6.47;5.88;;;16.00;99.90;;;;;;5070696;28;20309;-81
2021/09/24 03:05:22;;;;;;;7.22;6.53;;;15.90;99.90;;;;;;5070176;28;20681;-83
2021/09/24 03:07:49;;;;;;;14.88;5.10;;;15.80;99.90;;;;;;5070696;28;20247;-80
2021/09/24 03:10:16;;;;;;;12.77;6.07;;;15.80;99.90;;;;;;5070302;28;20206;-80
2021/09/24 03:12:43;;;;;;;7.22;6.53;;;15.80;99.90;;;;;;5070288;28;20209;-79
2021/09/24 03:15:12;;;;;;;7.53;5.43;;;15.70;99.90;;;;;;5070383;28;20238;-79
2021/09/24 03:17:40;;;;;;;9.27;6.07;;;15.70;99.90;;;;;;5070414;28;20206;-79
2021/09/24 03:20:09;;;;;;;6.85;6.03;;;15.70;99.90;;;;;;5069990;28;20206;-80
2021/09/24 03:22:38;;;;;;;6.90;5.78;;;15.70;99.90;;;;;;5070492;28;20217;-79
2021/09/24 03:25:06;;;;;;;5.53;5.03;;;15.50;99.90;;;;;;5070124;28;20206;-78
2021/09/24 03:27:34;;;;;;;6.28;5.78;;;15.50;99.90;;;;;;5070758;28;20256;-79
2021/09/24 03:30:01;;;;;;;6.55;5.47;;;15.60;99.90;;;;;;5070806;28;20208;-77
2021/09/24 03:32:28;;;;;;;7.20;5.38;;;15.70;99.90;;;;;;5070491;28;20673;-77
2021/09/24 03:34:55;;;;;;;5.78;5.05;;;15.70;99.90;;;;;;5070785;28;20225;-78
2021/09/24 03:37:22;;;;;;;9.38;6.45;;;15.70;99.90;;;;;;5074103;28;20220;-79
2021/09/24 03:39:51;;;;;;;6.05;5.45;;;15.70;99.90;;;;;;5074362;28;20206;-79
2021/09/24 03:42:18;;;;;;;6.60;5.45;;;15.70;99.90;;;;;;5074014;28;20628;-78
2021/09/24 03:44:45;;;;;;;6.20;5.57;;;15.60;99.90;;;;;;5074231;28;20255;-79
2021/09/24 03:47:12;;;;;;;9.65;6.15;;;15.70;99.90;;;;;;5073797;28;20210;-78
2021/09/24 03:49:39;;;;;;;6.47;5.30;;;15.70;99.90;;;;;;5073922;28;20252;-77
2021/09/24 03:52:06;;;;;;;6.38;5.78;;;15.60;99.90;;;;;;5073399;28;20263;-78
2021/09/24 03:54:33;;;;;;;6.80;6.13;;;15.60;99.90;;;;;;5073855;28;20218;-78
2021/09/24 03:57:02;;;;;;;8.65;5.97;;;15.50;99.90;;;;;;5074281;28;20279;-77
2021/09/24 03:59:29;;;;;;;5.72;5.18;;;15.50;99.90;;;;;;5074433;28;20201;-77
2021/09/24 04:01:56;;;;;;;5.88;5.10;;;15.50;99.90;;;;;;5073804;28;20214;-77
2021/09/24 04:04:23;;;;;;;6.22;5.50;;;15.50;99.90;;;;;;5072962;28;20612;-76
2021/09/24 04:06:50;;;;;;;7.78;6.05;;;15.50;99.90;;;;;;5073614;28;20572;-77
2021/09/24 04:09:17;;;;;;;5.95;5.30;;;15.50;99.90;;;;;;5072991;28;20202;-77
2021/09/24 04:11:44;;;;;;;7.50;5.38;;;15.40;99.90;;;;;;5073673;28;20719;-81
2021/09/24 04:14:12;;;;;;;8.13;7.30;;;15.40;99.90;;;;;;5073167;28;20236;-81
2021/09/24 04:16:39;;;;;;;7.90;6.00;;;15.40;99.90;;;;;;5073665;28;20206;-84
2021/09/24 04:19:06;;;;;;;6.80;6.20;;;15.40;99.90;;;;;;5072637;28;20206;-79
2021/09/24 04:21:33;;;;;;;6.03;5.43;;;15.40;99.90;;;;;;5073835;28;20259;-78
2021/09/24 04:24:00;;;;;;;5.70;5.03;;;15.40;99.90;;;;;;5074088;28;20217;-79
2021/09/24 04:26:27;;;;;;;5.43;4.93;;;15.30;99.90;;;;;;5073279;28;20206;-79
2021/09/24 04:28:54;;;;;;;6.15;5.55;;;15.30;99.90;;;;;;5073392;28;20210;-79
2021/09/24 04:31:23;;;;;;;5.80;5.20;;;15.30;99.90;;;;;;5072785;28;20259;-79
2021/09/24 04:33:50;;;;;;;8.23;6.30;;;15.30;99.90;;;;;;5072966;28;20740;-80
2021/09/24 04:36:17;;;;;;;6.40;5.80;;;15.30;99.90;;;;;;5073228;28;20218;-88
2021/09/24 04:38:44;;;;;;;6.10;5.60;;;15.20;99.90;;;;;;5073667;28;20264;-83
2021/09/24 04:41:11;;;;;;;7.05;6.35;;;15.20;99.90;;;;;;5072825;28;20251;-82
2021/09/24 04:43:38;;;;;;;7.95;7.15;;;15.20;99.90;;;;;;5073198;28;20221;-80
2021/09/24 04:46:05;;;;;;;7.68;5.85;;;15.20;99.90;;;;;;5071973;28;20210;-84
2021/09/24 04:48:34;;;;;;;6.72;5.15;;;15.20;99.90;;;;;;5072277;28;20202;-81
2021/09/24 04:51:02;;;;;;;6.65;6.00;;;15.20;99.90;;;;;;5073460;28;20319;-84
2021/09/24 04:53:30;;;;;;;8.27;6.82;;;15.20;99.90;;;;;;5073169;28;20217;-87
2021/09/24 04:55:57;;;;;;;6.18;5.57;;;15.20;99.90;;;;;;5072893;28;20229;-80
2021/09/24 04:58:24;;;;;;;8.40;6.32;;;15.10;99.90;;;;;;5072501;28;20738;-79
2021/09/24 05:00:51;;;;;;;6.80;5.97;;;15.10;99.90;;;;;;5071791;28;20206;-80
2021/09/24 05:03:18;;;;;;;7.20;6.13;;;15.10;99.90;;;;;;5072564;28;20206;-79
2021/09/24 05:05:46;;;;;;;6.82;5.88;;;15.10;99.90;;;;;;5072648;28;20279;-80
2021/09/24 05:08:13;;;;;;;6.38;5.50;;;15.10;99.90;;;;;;5072325;28;20256;-79
2021/09/24 05:10:40;;;;;;;6.35;5.60;;;15.10;99.90;;;;;;5072335;28;20631;-80
2021/09/24 05:13:07;;;;;;;7.43;6.72;;;15.00;99.90;;;;;;5071985;28;20677;-78
2021/09/24 05:15:34;;;;;;;7.32;6.55;;;15.10;99.90;;;;;;5072452;28;20291;-80
2021/09/24 05:18:01;;;;;;;7.07;6.32;;;15.10;99.90;;;;;;5072598;28;20252;-80
2021/09/24 05:20:29;;;;;;;7.20;6.50;;;15.00;99.90;;;;;;5072734;28;20324;-79
2021/09/24 05:22:58;;;;;;;7.55;5.57;;;14.90;99.90;;;;;;5072131;28;20731;-79
2021/09/24 05:25:25;;;;;;;7.15;6.45;;;15.00;99.90;;;;;;5071994;28;20206;-80
2021/09/24 05:27:53;;;;;;;7.32;5.78;;;15.00;99.90;;;;;;5071900;28;20210;-79
2021/09/24 05:30:20;;;;;;;7.40;5.97;;;15.00;99.90;;;;;;5071772;28;20263;-78
2021/09/24 05:32:47;;;;;;;7.15;5.95;;;15.00;99.90;;;;;;5064372;28;20269;-81
2021/09/24 05:35:15;;;;;;;7.43;6.55;;;15.00;99.90;;;;;;5071738;28;20295;-78
2021/09/24 05:37:42;;;;;;;6.30;5.68;;;15.10;99.90;;;;;;5071432;28;20282;-83
2021/09/24 05:40:12;;;;;;;6.85;5.57;;;15.00;99.90;;;;;;5069549;28;20214;-78
2021/09/24 05:42:39;;;;;;;7.25;6.10;;;14.90;99.90;;;;;;5071898;28;20260;-78
2021/09/24 05:45:10;;;;;;;6.10;5.57;;;14.80;99.90;;;;;;5065412;28;20259;-75
2021/09/24 05:47:38;;;;;;;6.38;5.30;;;14.90;99.90;;;;;;5069857;28;20203;-74
2021/09/24 05:50:11;;;;;;;8.18;5.82;;;14.90;99.90;;;;;;5066316;28;20628;-74
2021/09/24 05:52:39;;;;;;;11.65;6.47;;;15.00;99.90;;;;;;5058771;28;20257;-82
2021/09/24 05:55:07;;;;;;;6.53;5.80;;;14.90;99.90;;;;;;5063744;28;20248;-78
2021/09/24 05:57:35;;;;;;;7.70;6.25;;;14.90;99.90;;;;;;5067256;28;20229;-82
2021/09/24 06:00:04;;;;;;;8.27;7.47;;;14.90;99.90;;;;;;5071318;28;20206;-74
2021/09/24 06:02:31;;;;;;;11.13;7.47;;;14.90;99.90;;;;;;5070717;28;20210;-76
2021/09/24 06:04:59;;;;;;;10.82;8.10;;;15.00;99.90;;;;;;5070477;28;20210;-81
2021/09/24 06:07:26;;;;;;;46.55;25.05;;;15.00;99.90;;;;;;5070626;28;20213;-82
2021/09/24 06:09:54;;;;;;;78.70;43.47;;;14.90;99.90;;;;;;5071427;28;20210;-76
2021/09/24 06:12:21;;;;;;;56.33;30.73;;;14.90;99.90;;;;;;5070720;28;20207;-76
2021/09/24 06:14:50;;;;;;;33.30;19.65;;;15.00;99.90;;;;;;5070848;28;20238;-73
2021/09/24 06:17:17;;;;;;;34.13;18.65;;;15.00;99.90;;;;;;5071041;28;20210;-76
2021/09/24 06:19:44;;;;;;;20.75;14.25;;;15.10;99.90;;;;;;5070963;28;20629;-83
2021/09/24 06:22:11;;;;;;;25.55;14.35;;;15.10;99.90;;;;;;5071371;28;20202;-84
2021/09/24 06:24:38;;;;;;;25.40;15.25;;;15.20;99.90;;;;;;5068156;28;20206;-86
2021/09/24 06:27:10;;;;;;;54.83;26.45;;;15.30;99.90;;;;;;5070689;28;20199;-84
2021/09/24 06:29:37;;;;;;;31.58;16.67;;;15.40;99.90;;;;;;5061585;28;20202;-79
2021/09/24 06:32:07;;;;;;;25.13;13.73;;;15.50;99.90;;;;;;5066174;28;20213;-76
2021/09/24 06:34:35;;;;;;;27.75;14.73;;;15.50;99.90;;;;;;5069232;28;20300;-80
2021/09/24 06:37:02;;;;;;;30.80;17.48;;;15.50;99.90;;;;;;5070941;28;20252;-77
2021/09/24 06:39:29;;;;;;;26.40;14.40;;;15.60;99.90;;;;;;5068431;28;20205;-78
2021/09/24 06:41:56;;;;;;;16.85;9.60;;;15.60;99.90;;;;;;5070721;28;20213;-81
2021/09/24 06:44:24;;;;;;;8.85;7.50;;;15.60;99.90;;;;;;5069679;28;20680;-82
2021/09/24 06:46:51;;;;;;;17.02;9.55;;;15.80;99.90;;;;;;5069632;28;20210;-81
2021/09/24 06:49:22;;;;;;;10.48;7.72;;;15.80;99.90;;;;;;5059059;28;20211;-80
2021/09/24 06:51:49;;;;;;;11.57;7.32;;;15.80;99.90;;;;;;5068206;28;20695;-82
2021/09/24 06:54:16;;;;;;;9.15;7.15;;;15.80;99.90;;;;;;5070061;28;20255;-82
2021/09/24 06:56:43;;;;;;;11.30;7.60;;;15.80;99.90;;;;;;5067493;28;20233;-81
2021/09/24 06:59:10;;;;;;;7.80;6.50;;;15.90;99.90;;;;;;5058090;28;20203;-82
2021/09/24 07:01:38;;;;;;;8.07;7.28;;;16.00;99.90;;;;;;5065891;28;20571;-82
2021/09/24 07:04:05;;;;;;;10.25;6.57;;;15.90;99.90;;;;;;5065787;28;20264;-82
2021/09/24 07:06:34;;;;;;;7.93;5.97;;;15.80;99.90;;;;;;5066010;28;20271;-81
2021/09/24 07:09:01;;;;;;;8.57;6.45;;;16.00;99.90;;;;;;5069752;28;20270;-81
2021/09/24 07:11:28;;;;;;;8.98;7.18;;;16.10;99.90;;;;;;5069210;28;20599;-82
2021/09/24 07:13:55;;;;;;;7.57;6.35;;;16.20;99.90;;;;;;5068059;28;20673;-81
2021/09/24 07:16:22;;;;;;;8.60;6.53;;;16.20;99.90;;;;;;5068107;28;20230;-82
2021/09/24 07:18:49;;;;;;;7.78;5.95;;;16.10;99.90;;;;;;5066237;28;20206;-82
2021/09/24 07:21:16;;;;;;;11.93;6.57;;;16.20;99.90;;;;;;5065012;28;20287;-81
2021/09/24 07:23:44;;;;;;;7.22;5.72;;;16.40;99.90;;;;;;5067443;28;20255;-79
2021/09/24 07:26:12;;;;;;;8.07;7.35;;;16.40;99.90;;;;;;5063450;28;20264;-81
2021/09/24 07:28:39;;;;;;;7.28;6.00;;;16.50;99.90;;;;;;5063872;28;20218;-82
2021/09/24 07:31:06;;;;;;;7.68;6.53;;;16.70;99.90;;;;;;5067064;28;20311;-83
2021/09/24 07:33:33;;;;;;;7.63;6.75;;;16.70;99.90;;;;;;5065607;28;20630;-83
2021/09/24 07:36:00;;;;;;;5.85;5.22;;;16.70;99.90;;;;;;5069339;28;20234;-84
2021/09/24 07:38:27;;;;;;;7.07;6.07;;;16.70;99.90;;;;;;5069063;28;20628;-84
2021/09/24 07:40:55;;;;;;;9.52;6.90;;;16.80;99.90;;;;;;5069357;28;20278;-83
2021/09/24 07:43:22;;;;;;;7.28;6.43;;;17.10;99.90;;;;;;5068810;28;20255;-85
2021/09/24 07:45:49;;;;;;;8.57;5.90;;;17.20;99.90;;;;;;5066176;28;20287;-84
2021/09/24 07:48:16;;;;;;;8.25;6.70;;;17.20;99.90;;;;;;5069130;28;20202;-84
2021/09/24 07:50:43;;;;;;;7.85;6.45;;;17.20;99.90;;;;;;5069285;28;20198;-85
2021/09/24 07:53:10;;;;;;;8.40;6.82;;;17.20;99.90;;;;;;5069425;28;20206;-84
2021/09/24 07:55:37;;;;;;;8.23;6.10;;;17.30;99.90;;;;;;5068425;28;20222;-84
2021/09/24 07:58:08;;;;;;;6.75;6.20;;;17.40;99.90;;;;;;5069045;28;20214;-84
2021/09/24 08:00:36;;;;;;;8.38;6.80;;;17.50;99.90;;;;;;5066523;28;20654;-82
2021/09/24 08:03:03;;;;;;;10.13;6.90;;;17.70;99.90;;;;;;5068977;28;20236;-82
2021/09/24 08:05:30;;;;;;;6.53;5.78;;;18.00;99.90;;;;;;5069108;28;20206;-83
2021/09/24 08:07:58;;;;;;;10.02;7.15;;;18.10;99.90;;;;;;5069500;28;20214;-86
2021/09/24 08:10:25;;;;;;;8.55;6.93;;;18.20;99.90;;;;;;5068614;28;20212;-83
2021/09/24 08:12:52;;;;;;;9.07;7.22;;;18.00;99.90;;;;;;5068919;28;20285;-86
2021/09/24 08:15:21;;;;;;;13.88;7.50;;;18.00;99.90;;;;;;5054492;28;20234;-84
2021/09/24 08:17:48;;;;;;;8.18;6.65;;;18.20;99.90;;;;;;5067244;28;20263;-83
2021/09/24 08:20:16;;;;;;;11.35;6.93;;;18.40;99.90;;;;;;5068473;28;20211;-85
2021/09/24 08:22:43;;;;;;;8.38;6.32;;;18.60;99.90;;;;;;5071312;28;20206;-85
2021/09/24 08:25:12;;;;;;;9.77;6.97;;;18.60;99.90;;;;;;5072507;28;20260;-88
2021/09/24 08:27:41;;;;;;;8.45;7.35;;;18.70;99.90;;;;;;5068992;28;20206;-86
2021/09/24 08:30:11;;;;;;;7.90;7.20;;;18.60;99.90;;;;;;5073242;28;20214;-85
2021/09/24 08:32:39;;;;;;;10.85;7.10;;;18.60;99.90;;;;;;5067027;28;20202;-84
2021/09/24 08:35:09;;;;;;;7.50;6.57;;;19.00;99.90;;;;;;5065753;28;20692;-89
2021/09/24 08:37:36;;;;;;;5.88;5.03;;;18.50;99.90;;;;;;5071934;28;20206;-84
2021/09/24 08:40:06;;;;;;;7.32;5.88;;;19.50;99.90;;;;;;5068831;28;20248;-80
2021/09/24 08:42:33;;;;;;;7.72;6.53;;;19.50;99.90;;;;;;5071016;28;20210;-81
2021/09/24 08:45:00;;;;;;;9.23;6.35;;;19.60;99.90;;;;;;5059380;28;20206;-79
2021/09/24 08:47:27;;;;;;;6.25;5.65;;;19.70;99.90;;;;;;5058986;28;20215;-82
2021/09/24 08:49:56;;;;;;;7.55;6.40;;;19.80;99.90;;;;;;5062263;28;20214;-82
2021/09/24 08:52:23;;;;;;;7.97;6.20;;;20.00;99.90;;;;;;5068409;28;20268;-82
2021/09/24 08:54:50;;;;;;;7.43;6.63;;;20.00;99.90;;;;;;5068084;28;20209;-83
2021/09/24 08:57:17;;;;;;;6.97;5.90;;;20.20;99.90;;;;;;5070841;28;20728;-80
2021/09/24 08:59:45;;;;;;;9.30;5.55;;;20.20;99.90;;;;;;5062077;28;20262;-81
2021/09/24 09:02:12;;;;;;;5.50;4.97;;;20.30;99.90;;;;;;5071045;28;20308;-81
2021/09/24 09:04:42;;;;;;;5.53;4.38;;;20.60;99.90;;;;;;5071282;28;20247;-82
2021/09/24 09:07:11;;;;;;;4.95;4.45;;;21.50;99.90;;;;;;5065038;28;20301;-79
2021/09/24 09:09:40;;;;;;;7.53;5.32;;;21.10;99.90;;;;;;5068482;28;20217;-81
2021/09/24 09:12:12;;;;;;;5.43;5.00;;;20.90;99.90;;;;;;5071799;28;20218;-81
2021/09/24 09:14:40;;;;;;;4.65;4.20;;;20.90;99.90;;;;;;5067159;28;20211;-82
2021/09/24 09:17:31;;;;;;;5.18;4.68;;;21.00;99.90;;;;;;5070635;28;20233;-79
2021/09/24 09:20:13;;;;;;;6.05;4.78;;;21.00;99.90;;;;;;5063346;28;20203;-81
2021/09/24 09:22:42;;;;;;;13.15;6.95;;;21.30;99.90;;;;;;5069769;28;20727;-80
2021/09/24 09:25:14;;;;;;;7.90;5.82;;;21.40;99.90;;;;;;5059807;28;20202;-79
2021/09/24 09:27:48;;;;;;;8.45;4.70;;;21.60;99.90;;;;;;5069827;28;20201;-80
2021/09/24 09:30:15;;;;;;;6.53;4.90;;;21.60;99.90;;;;;;5068858;28;20202;-80
2021/09/24 09:32:44;;;;;;;8.40;6.00;;;21.60;99.90;;;;;;5071240;28;20628;-80
2021/09/24 09:35:12;;;;;;;12.63;7.43;;;21.90;99.90;;;;;;5070556;28;20228;-81
2021/09/24 09:37:41;;;;;;;6.03;5.43;;;21.90;99.90;;;;;;5071060;28;20708;-80
2021/09/24 09:40:13;;;;;;;11.25;6.22;;;22.10;99.90;;;;;;5071205;28;20202;-81
2021/09/24 09:42:43;;;;;;;7.68;4.95;;;22.20;99.90;;;;;;5067879;28;20202;-79
2021/09/24 09:45:12;;;;;;;6.55;4.57;;;22.30;99.90;;;;;;5065043;28;20199;-79
2021/09/24 09:47:42;;;;;;;7.00;4.78;;;22.30;99.90;;;;;;5069971;28;20206;-80
2021/09/24 09:50:12;;;;;;;4.57;3.63;;;22.30;99.90;;;;;;5068383;28;20260;-78
2021/09/24 09:52:58;;;;;;;4.18;3.78;;;22.50;99.90;;;;;;5068872;28;20207;-80
2021/09/24 09:55:27;;;;;;;3.80;3.45;;;22.60;99.90;;;;;;5062425;28;20211;-79
2021/09/24 09:57:55;;;;;;;3.80;3.40;;;23.00;99.90;;;;;;5071580;28;20206;-82
2021/09/24 10:00:23;;;;;;;6.53;3.78;;;23.60;99.90;;;;;;5071195;28;20264;-82
2021/09/24 10:03:03;;;;;;;4.25;3.85;;;23.40;99.90;;;;;;5071209;28;20230;-81
2021/09/24 10:05:41;;;;;;;3.35;3.08;;;24.20;99.90;;;;;;5071394;28;20245;-79
2021/09/24 10:08:25;;;;;;;3.85;3.55;;;25.40;99.90;;;;;;5065632;28;20632;-79
2021/09/24 10:11:06;;;;;;;6.57;5.78;;;24.90;99.90;;;;;;5067554;28;20690;-79
2021/09/24 10:13:49;;;;;;;4.40;3.90;;;25.60;99.90;;;;;;5068793;28;20198;-79
2021/09/24 10:16:16;;;;;;;4.88;3.30;;;26.80;99.90;;;;;;5068279;28;20701;-78
2021/09/24 10:18:43;;;;;;;5.60;3.42;;;28.20;99.90;;;;;;5066836;28;20202;-76
2021/09/24 10:21:10;;;;;;;5.03;2.90;;;26.90;99.90;;;;;;5062714;28;20252;-80
2021/09/24 10:23:39;;;;;;;3.67;2.38;;;25.00;99.90;;;;;;5066829;28;20202;-77
2021/09/24 10:26:07;;;;;;;4.32;2.78;;;;;;;;;;5070692;28;20214;-77
2021/09/24 10:28:38;;;;;;;4.30;2.85;;;24.30;99.90;;;;;;5064807;28;20268;-78
2021/09/24 10:31:12;;;;;;;5.20;4.68;;;23.70;99.90;;;;;;5066539;28;20211;-78
2021/09/24 10:33:48;;;;;;;3.95;2.55;;;23.80;99.90;;;;;;5063034;28;20259;-78
2021/09/24 10:36:35;;;;;;;2.67;2.00;;;24.00;99.90;;;;;;5068760;28;20609;-75
2021/09/24 10:39:04;;;;;;;5.90;5.45;;;24.00;99.90;;;;;;5066642;28;20718;-80
2021/09/24 10:41:31;;;;;;;3.40;3.05;;;24.10;99.90;;;;;;5069552;28;20206;-82
2021/09/24 10:43:58;;;;;;;3.03;2.28;;;24.30;99.90;;;;;;5067308;28;20611;-81
2021/09/24 10:46:34;;;;;;;2.28;2.00;;;24.40;99.90;;;;;;5064333;28;20209;-78
2021/09/24 10:49:32;;;;;;;3.67;3.38;;;24.50;99.90;;;;;;5070501;28;20308;-78
2021/09/24 10:52:11;;;;;;;3.55;1.95;;;24.40;99.90;;;;;;5070832;28;20206;-79
2021/09/24 10:54:59;;;;;;;1.85;1.70;;;23.90;99.90;;;;;;5053022;28;20619;-79
2021/09/24 10:57:48;;;;;;;5.05;2.25;;;23.80;99.90;;;;;;5069358;28;20236;-79
2021/09/24 11:00:25;;;;;;;5.20;2.47;;;24.00;99.90;;;;;;5069892;28;20603;-79
2021/09/24 11:03:09;;;;;;;2.97;2.45;;;24.30;99.90;;;;;;5069152;28;20267;-78
2021/09/24 11:05:56;;;;;;;2.38;2.05;;;24.50;99.90;;;;;;5070229;28;20216;-79
2021/09/24 11:08:41;;;;;;;2.58;2.38;;;25.10;99.90;;;;;;5069939;28;20202;-78
2021/09/24 11:11:11;;;;;;;3.08;1.77;;;25.20;99.90;;;;;;5069056;28;20209;-77
2021/09/24 11:13:41;;;;;;;2.40;1.95;;;25.20;99.90;;;;;;5065622;28;20264;-79
2021/09/24 11:16:11;;;;;;;2.75;2.08;;;25.30;99.90;;;;;;5063437;28;20263;-78
2021/09/24 11:18:49;;;;;;;2.20;2.03;;;25.20;99.90;;;;;;5068751;28;20217;-78
2021/09/24 11:21:17;;;;;;;3.58;1.75;;;24.80;99.90;;;;;;5064298;28;20263;-78
2021/09/24 11:23:45;;;;;;;2.78;1.95;;;25.00;99.90;;;;;;5066944;28;20202;-78
2021/09/24 11:26:17;;;;;;;2.15;1.95;;;25.30;99.90;;;;;;5063537;28;20636;-77
2021/09/24 11:28:45;;;;;;;2.47;2.03;;;25.00;99.90;;;;;;5064425;28;20203;-76
2021/09/24 11:31:14;;;;;;;2.53;2.33;;;25.20;99.90;;;;;;5067724;28;20198;-77
2021/09/24 11:33:45;;;;;;;3.17;1.77;;;25.20;99.90;;;;;;5069157;28;20731;-77
2021/09/24 11:36:12;;;;;;;2.28;1.98;;;25.20;99.90;;;;;;5067956;28;20674;-77
2021/09/24 11:38:40;;;;;;;2.90;2.13;;;25.20;99.90;;;;;;5069355;28;20267;-77
2021/09/24 11:41:07;;;;;;;1.65;1.42;;;25.80;99.90;;;;;;5069391;28;20632;-78
2021/09/24 11:43:38;;;;;;;1.30;1.20;;;26.30;99.90;;;;;;5067256;28;20681;-78
2021/09/24 11:46:14;;;;;;;1.27;1.15;;;26.20;99.90;;;;;;5067217;28;20202;-76
2021/09/24 11:48:42;;;;;;;1.98;1.70;;;26.10;99.90;;;;;;5070098;28;20201;-77
2021/09/24 11:51:11;;;;;;;1.95;1.75;;;26.20;99.90;;;;;;5067004;28;20737;-78
2021/09/24 11:53:53;;;;;;;3.05;1.48;;;25.80;99.90;;;;;;5068267;28;20210;-78
2021/09/24 11:56:31;;;;;;;1.33;1.23;;;25.50;99.90;;;;;;5067643;28;20201;-77
2021/09/24 11:59:06;;;;;;;1.55;1.45;;;25.20;99.90;;;;;;5070789;28;20210;-78
2021/09/24 12:01:33;;;;;;;1.42;1.27;;;24.90;99.90;;;;;;5071735;28;20209;-78
2021/09/24 12:04:03;;;;;;;1.33;1.23;;;25.10;99.90;;;;;;5068858;28;20619;-78
2021/09/24 12:06:34;;;;;;;1.30;1.20;;;25.10;99.90;;;;;;5073570;28;20263;-78
2021/09/24 12:09:04;;;;;;;1.70;1.60;;;25.10;99.90;;;;;;5073898;28;20206;-77
2021/09/24 12:11:42;;;;;;;1.90;1.17;;;24.90;99.90;;;;;;5072661;28;20206;-78
2021/09/24 12:14:10;;;;;;;1.45;1.35;;;25.00;99.90;;;;;;5072736;28;20689;-77
2021/09/24 12:16:40;;;;;;;2.50;1.50;;;25.50;99.90;;;;;;5072957;28;20275;-77
2021/09/24 12:19:09;;;;;;;2.88;1.58;;;25.90;99.90;;;;;;5072814;28;20206;-79
2021/09/24 12:21:51;;;;;;;2.10;1.30;;;26.20;99.90;;;;;;5072281;28;20245;-78
2021/09/24 12:24:21;;;;;;;1.50;1.40;;;25.90;99.90;;;;;;5071594;28;20202;-77
2021/09/24 12:26:50;;;;;;;1.73;1.48;;;25.70;99.90;;;;;;5071076;28;20210;-77
2021/09/24 12:29:24;;;;;;;2.00;1.20;;;25.80;99.90;;;;;;5069514;28;20255;-81
2021/09/24 12:31:53;;;;;;;2.47;1.50;;;25.90;99.90;;;;;;5068126;28;20210;-80
2021/09/24 12:34:22;;;;;;;1.50;1.40;;;25.90;99.90;;;;;;5069868;28;20202;-77
2021/09/24 12:37:01;;;;;;;4.13;1.65;;;25.90;99.90;;;;;;5067483;28;20653;-77
2021/09/24 12:39:31;;;;;;;3.30;1.40;;;25.90;99.90;;;;;;5070750;28;20201;-76
2021/09/24 12:41:59;;;;;;;1.90;1.70;;;26.00;99.90;;;;;;5071897;28;20296;-78
2021/09/24 12:44:28;;;;;;;1.85;1.75;;;26.10;99.90;;;;;;5073109;28;20213;-77
2021/09/24 12:46:57;;;;;;;4.03;2.00;;;26.10;99.90;;;;;;5072388;28;20681;-77
2021/09/24 12:49:25;;;;;;;7.82;1.98;;;26.10;99.90;;;;;;5072513;28;20209;-77
2021/09/24 12:51:53;;;;;;;1.90;1.80;;;26.00;99.90;;;;;;5071913;28;20203;-77
2021/09/24 12:54:22;;;;;;;2.42;1.50;;;25.80;99.90;;;;;;5072228;28;20259;-77